Time;durP1;ratioP1;P1;durP2;ratioP2;P2;SDS_P1;SDS_P2;PMS_P1;PMS_P2;Temp;Humidity;BMP_temperature;BMP_pressure;BME280_temperature;BME280_humidity;BME280_pressure;Samples;Min_cycle;Max_cycle;Signal;HPM_P1;HPM_P2
2021/01/12 00:02:17;;;;;;;33.67;29.97;;;5.20;99.90;;;;;;5098579;27;21003;-76
2021/01/12 00:04:43;;;;;;;34.50;30.93;;;5.20;99.90;;;;;;5099018;28;20490;-76
2021/01/12 00:07:10;;;;;;;36.50;32.63;;;5.20;99.90;;;;;;5103141;28;20462;-77
2021/01/12 00:09:37;;;;;;;38.50;34.50;;;5.20;99.90;;;;;;5107147;28;20500;-76
2021/01/12 00:12:05;;;;;;;38.53;33.53;;;5.20;99.90;;;;;;5099820;28;20488;-76
2021/01/12 00:14:31;;;;;;;38.23;34.33;;;5.30;99.90;;;;;;5099081;28;20485;-76
2021/01/12 00:17:02;;;;;;;40.17;35.83;;;5.20;99.90;;;;;;5107422;27;21237;-75
2021/01/12 00:19:28;;;;;;;34.80;31.60;;;5.20;99.90;;;;;;5094137;28;20450;-75
2021/01/12 00:21:55;;;;;;;40.07;34.57;;;5.20;99.90;;;;;;5097886;28;20470;-75
2021/01/12 00:24:22;;;;;;;39.10;34.47;;;5.10;99.90;;;;;;5105199;28;20963;-76
2021/01/12 00:26:50;;;;;;;37.13;33.13;;;5.10;99.90;;;;;;5097950;28;20453;-76
2021/01/12 00:29:17;;;;;;;34.33;30.87;;;5.10;99.90;;;;;;5097628;28;20527;-76
2021/01/12 00:31:45;;;;;;;38.00;33.93;;;5.10;99.90;;;;;;5108093;27;20449;-75
2021/01/12 00:34:13;;;;;;;36.40;32.60;;;5.10;99.90;;;;;;5104131;28;20518;-75
2021/01/12 00:36:43;;;;;;;34.87;31.37;;;5.20;99.90;;;;;;5103132;28;20464;-75
2021/01/12 00:39:09;;;;;;;37.37;33.93;;;5.20;99.90;;;;;;5096301;28;20518;-76
2021/01/12 00:41:37;;;;;;;37.60;33.70;;;5.20;99.90;;;;;;5105243;28;20543;-76
2021/01/12 00:44:05;;;;;;;36.77;32.87;;;5.20;99.90;;;;;;5102739;28;20965;-75
2021/01/12 00:46:31;;;;;;;43.87;36.87;;;5.10;99.90;;;;;;5102025;28;20457;-76
2021/01/12 00:48:58;;;;;;;35.23;31.73;;;5.10;99.90;;;;;;5097549;28;20468;-76
2021/01/12 00:51:34;;;;;;;40.40;31.37;;;5.10;99.90;;;;;;5100875;28;20458;-76
2021/01/12 00:54:02;;;;;;;36.60;32.63;;;5.10;99.90;;;;;;5096741;28;20469;-76
2021/01/12 00:56:28;;;;;;;36.70;33.03;;;5.10;99.90;;;;;;5101183;28;20492;-76
2021/01/12 00:58:55;;;;;;;34.60;31.20;;;5.10;99.90;;;;;;5111159;27;20450;-76
2021/01/12 01:01:21;;;;;;;37.13;33.43;;;5.10;99.90;;;;;;5101801;28;20561;-76
2021/01/12 01:03:48;;;;;;;35.83;32.10;;;5.10;99.90;;;;;;5100801;28;20458;-75
2021/01/12 01:06:14;;;;;;;36.33;32.73;;;5.10;99.90;;;;;;5102109;28;20872;-75
2021/01/12 01:08:41;;;;;;;31.93;28.83;;;5.10;99.90;;;;;;5101821;28;20978;-75
2021/01/12 01:11:07;;;;;;;39.13;34.40;;;5.10;99.90;;;;;;5099733;28;20665;-75
2021/01/12 01:13:34;;;;;;;35.00;29.30;;;5.10;99.90;;;;;;5101105;28;20449;-76
2021/01/12 01:16:00;;;;;;;38.70;34.43;;;5.10;99.90;;;;;;5099571;28;21002;-74
2021/01/12 01:18:26;;;;;;;39.77;32.60;;;5.10;99.90;;;;;;5102918;28;20454;-75
2021/01/12 01:20:53;;;;;;;36.83;33.20;;;5.00;99.90;;;;;;5103297;28;20492;-74
2021/01/12 01:23:19;;;;;;;38.93;35.17;;;5.10;99.90;;;;;;5104425;28;20464;-75
2021/01/12 01:25:47;;;;;;;37.90;34.17;;;5.10;99.90;;;;;;5098078;28;21025;-76
2021/01/12 01:28:13;;;;;;;35.90;32.50;;;5.00;99.90;;;;;;5097672;28;20485;-75
2021/01/12 01:30:40;;;;;;;36.53;32.83;;;5.10;99.90;;;;;;5100591;28;21023;-75
2021/01/12 01:33:06;;;;;;;37.10;33.27;;;5.10;99.90;;;;;;5100994;28;20988;-74
2021/01/12 01:35:32;;;;;;;36.40;32.70;;;5.00;99.90;;;;;;5101403;28;20498;-75
2021/01/12 01:38:00;;;;;;;33.77;30.40;;;5.10;99.90;;;;;;5099894;28;20480;-75
2021/01/12 01:40:26;;;;;;;34.30;31.00;;;5.00;99.90;;;;;;5094713;28;20957;-75
2021/01/12 01:42:53;;;;;;;31.83;28.77;;;5.00;99.90;;;;;;5098198;28;20482;-75
2021/01/12 01:45:19;;;;;;;37.00;33.37;;;4.90;99.90;;;;;;5098118;28;20482;-76
2021/01/12 01:47:47;;;;;;;35.23;31.60;;;5.00;99.90;;;;;;5102644;28;20457;-75
2021/01/12 01:50:16;;;;;;;32.67;29.63;;;4.90;99.90;;;;;;5105087;28;20543;-76
2021/01/12 01:52:44;;;;;;;36.27;32.17;;;4.90;99.90;;;;;;5095976;28;20457;-75
2021/01/12 01:55:13;;;;;;;36.37;32.80;;;4.90;99.90;;;;;;5101793;28;20449;-75
2021/01/12 01:57:41;;;;;;;33.20;29.97;;;4.90;99.90;;;;;;5099969;28;20497;-76
2021/01/12 02:00:10;;;;;;;33.27;30.13;;;4.90;99.90;;;;;;5108064;28;20448;-75
2021/01/12 02:02:39;;;;;;;33.90;30.40;;;5.00;99.90;;;;;;5093688;28;20501;-74
2021/01/12 02:05:12;;;;;;;31.50;28.50;;;5.00;99.90;;;;;;5100716;28;20496;-75
2021/01/12 02:07:44;;;;;;;31.30;28.53;;;5.00;99.90;;;;;;5100165;28;20465;-75
2021/01/12 02:10:14;;;;;;;26.67;24.17;;;5.10;99.90;;;;;;5101543;28;20829;-76
2021/01/12 02:12:47;;;;;;;31.63;28.50;;;5.10;99.90;;;;;;5100444;28;20492;-75
2021/01/12 02:15:20;;;;;;;28.27;25.77;;;5.20;99.90;;;;;;5096887;28;20462;-76
2021/01/12 02:17:47;;;;;;;27.10;25.07;;;5.20;99.90;;;;;;5101600;28;20733;-75
2021/01/12 02:20:15;;;;;;;29.40;26.87;;;5.20;99.90;;;;;;5094222;28;20458;-74
2021/01/12 02:22:47;;;;;;;27.07;24.97;;;5.20;99.90;;;;;;5100195;28;20510;-76
2021/01/12 02:25:18;;;;;;;27.00;24.80;;;5.30;99.90;;;;;;5095137;28;20561;-75
2021/01/12 02:27:45;;;;;;;27.23;24.93;;;5.30;99.90;;;;;;5102894;28;20457;-75
2021/01/12 02:30:12;;;;;;;28.07;25.80;;;5.30;99.90;;;;;;5100919;28;20814;-74
2021/01/12 02:32:38;;;;;;;28.60;26.00;;;5.30;99.90;;;;;;5102421;28;20571;-74
2021/01/12 02:35:07;;;;;;;27.43;25.33;;;5.30;99.90;;;;;;5095574;28;20458;-75
2021/01/12 02:37:34;;;;;;;28.17;25.87;;;5.30;99.90;;;;;;5101540;28;20464;-75
2021/01/12 02:40:01;;;;;;;27.77;25.43;;;5.40;99.90;;;;;;5094246;28;20462;-75
2021/01/12 02:42:29;;;;;;;24.90;23.10;;;5.30;99.90;;;;;;5094652;28;20517;-75
2021/01/12 02:44:55;;;;;;;27.20;25.20;;;5.30;99.90;;;;;;5103367;28;20523;-75
2021/01/12 02:47:21;;;;;;;28.47;26.07;;;5.30;99.90;;;;;;5102085;28;20971;-75
2021/01/12 02:49:48;;;;;;;26.93;24.87;;;5.40;99.90;;;;;;5098238;28;20457;-75
2021/01/12 02:52:15;;;;;;;27.43;25.23;;;5.40;99.90;;;;;;5100092;28;20793;-75
2021/01/12 02:54:42;;;;;;;27.40;24.90;;;5.40;99.90;;;;;;5098909;28;20801;-75
2021/01/12 02:57:09;;;;;;;25.30;23.27;;;5.40;99.90;;;;;;5099385;28;20510;-75
2021/01/12 02:59:37;;;;;;;25.93;23.73;;;5.50;99.90;;;;;;5108444;28;20499;-75
2021/01/12 03:02:03;;;;;;;25.33;23.33;;;5.50;99.90;;;;;;5092585;28;20484;-75
2021/01/12 03:04:30;;;;;;;24.30;22.57;;;5.60;99.90;;;;;;5094311;28;20488;-75
2021/01/12 03:06:56;;;;;;;25.00;23.03;;;5.50;99.90;;;;;;5101746;28;20518;-75
2021/01/12 03:09:22;;;;;;;25.67;23.37;;;5.60;99.90;;;;;;5105644;28;20467;-75
2021/01/12 03:11:52;;;;;;;25.57;23.60;;;5.60;99.90;;;;;;5096570;28;20466;-76
2021/01/12 03:14:19;;;;;;;24.80;22.77;;;5.60;99.90;;;;;;5106062;28;20453;-75
2021/01/12 03:16:47;;;;;;;26.83;24.33;;;5.60;99.90;;;;;;5107344;28;20962;-76
2021/01/12 03:19:13;;;;;;;26.10;23.90;;;5.70;99.90;;;;;;5103665;28;20464;-76
2021/01/12 03:21:40;;;;;;;24.53;22.83;;;5.70;99.90;;;;;;5102500;28;20486;-75
2021/01/12 03:24:07;;;;;;;26.13;24.03;;;5.70;99.90;;;;;;5105799;28;20524;-76
2021/01/12 03:26:34;;;;;;;26.73;24.40;;;5.70;99.90;;;;;;5098875;28;20453;-75
2021/01/12 03:29:01;;;;;;;23.10;21.27;;;5.80;99.90;;;;;;5104313;28;20488;-76
2021/01/12 03:31:27;;;;;;;27.80;25.43;;;5.70;99.90;;;;;;5102285;28;20467;-75
2021/01/12 03:33:55;;;;;;;24.43;22.53;;;5.70;99.90;;;;;;5096927;28;20446;-76
2021/01/12 03:36:23;;;;;;;25.80;23.70;;;5.70;99.90;;;;;;5100438;28;20458;-76
2021/01/12 03:38:49;;;;;;;25.50;23.33;;;5.80;99.90;;;;;;5096685;28;20457;-75
2021/01/12 03:41:15;;;;;;;26.07;24.27;;;5.80;99.90;;;;;;5094931;28;20476;-76
2021/01/12 03:43:42;;;;;;;26.53;22.43;;;5.80;99.90;;;;;;5100471;28;20874;-75
2021/01/12 03:46:08;;;;;;;25.00;23.17;;;5.80;99.90;;;;;;5103820;28;20537;-76
2021/01/12 03:48:35;;;;;;;25.03;23.23;;;5.80;99.90;;;;;;5099370;28;20457;-76
2021/01/12 03:51:03;;;;;;;25.40;23.60;;;5.80;99.90;;;;;;5103820;28;20454;-75
2021/01/12 03:53:29;;;;;;;25.17;23.47;;;5.90;99.90;;;;;;5101711;28;20445;-76
2021/01/12 03:55:55;;;;;;;24.93;23.13;;;5.90;99.90;;;;;;5096395;28;20511;-76
2021/01/12 03:58:21;;;;;;;25.50;23.60;;;5.90;99.90;;;;;;5091589;28;20465;-76
2021/01/12 04:00:48;;;;;;;23.37;21.87;;;5.90;99.90;;;;;;5090749;28;20462;-75
2021/01/12 04:03:14;;;;;;;25.90;23.90;;;5.90;99.90;;;;;;5088174;28;20569;-76
2021/01/12 04:05:41;;;;;;;27.13;24.73;;;6.00;99.90;;;;;;5091101;28;20848;-75
2021/01/12 04:08:11;;;;;;;24.53;23.07;;;6.00;99.90;;;;;;5094009;28;20987;-75
2021/01/12 04:10:39;;;;;;;25.33;23.70;;;6.10;99.90;;;;;;5090275;28;20461;-75
2021/01/12 04:13:05;;;;;;;24.80;23.20;;;6.00;99.90;;;;;;5094820;28;20458;-76
2021/01/12 04:15:31;;;;;;;23.37;21.97;;;6.10;99.90;;;;;;5091460;28;20467;-75
2021/01/12 04:17:58;;;;;;;24.17;22.67;;;6.10;99.90;;;;;;5090895;28;20462;-75
2021/01/12 04:20:24;;;;;;;24.80;23.20;;;6.10;99.90;;;;;;5100277;28;20866;-74
2021/01/12 04:22:52;;;;;;;25.23;23.53;;;6.10;99.90;;;;;;5097317;28;20492;-75
2021/01/12 04:25:20;;;;;;;25.33;23.53;;;6.10;99.90;;;;;;5093262;28;20552;-77
2021/01/12 04:27:47;;;;;;;24.97;23.47;;;6.10;99.90;;;;;;5089043;28;20457;-76
2021/01/12 04:30:14;;;;;;;26.10;23.40;;;6.10;99.90;;;;;;5094001;28;20848;-75
2021/01/12 04:32:40;;;;;;;24.17;22.70;;;6.10;99.90;;;;;;5088750;28;23116;-76
2021/01/12 04:35:09;;;;;;;24.43;22.90;;;6.10;99.90;;;;;;5094622;28;20486;-76
2021/01/12 04:37:35;;;;;;;24.10;22.60;;;6.10;99.90;;;;;;5095704;28;20502;-76
2021/01/12 04:40:02;;;;;;;24.37;22.90;;;6.10;99.90;;;;;;5094056;28;20462;-76
2021/01/12 04:42:32;;;;;;;23.63;22.23;;;6.10;99.90;;;;;;5092418;28;20854;-76
2021/01/12 04:45:00;;;;;;;24.43;22.87;;;6.10;99.90;;;;;;5091249;28;20996;-76
2021/01/12 04:47:27;;;;;;;26.00;24.40;;;6.20;99.90;;;;;;5094070;28;20459;-75
2021/01/12 04:49:53;;;;;;;24.33;22.47;;;6.20;99.90;;;;;;5093565;28;20522;-77
2021/01/12 04:52:22;;;;;;;24.00;22.27;;;6.20;99.90;;;;;;5092691;28;20983;-75
2021/01/12 04:54:51;;;;;;;22.60;20.97;;;6.20;99.90;;;;;;5093085;28;20648;-75
2021/01/12 04:57:17;;;;;;;23.10;21.73;;;6.10;99.90;;;;;;5091587;28;21085;-75
2021/01/12 04:59:45;;;;;;;23.47;22.03;;;6.20;99.90;;;;;;5097442;27;20460;-75
2021/01/12 05:02:13;;;;;;;22.80;21.20;;;6.20;99.90;;;;;;5094945;28;20856;-75
2021/01/12 05:04:43;;;;;;;24.07;22.67;;;6.20;99.90;;;;;;5097818;28;20489;-75
2021/01/12 05:07:11;;;;;;;25.77;23.80;;;6.30;99.90;;;;;;5093127;28;20458;-75
2021/01/12 05:09:40;;;;;;;25.60;24.10;;;6.30;99.90;;;;;;5101255;28;20638;-75
2021/01/12 05:12:08;;;;;;;25.43;23.93;;;6.30;99.90;;;;;;5096523;28;20532;-75
2021/01/12 05:14:38;;;;;;;25.03;23.53;;;6.30;99.90;;;;;;5097817;28;20458;-76
2021/01/12 05:17:06;;;;;;;25.50;23.93;;;6.30;99.90;;;;;;5097206;28;20496;-74
2021/01/12 05:19:33;;;;;;;22.03;20.90;;;6.30;99.90;;;;;;5104808;28;20457;-77
2021/01/12 05:22:03;;;;;;;24.13;22.60;;;6.30;99.90;;;;;;5101375;28;21006;-76
2021/01/12 05:24:31;;;;;;;24.63;23.33;;;6.30;99.90;;;;;;5101584;28;20812;-75
2021/01/12 05:27:07;;;;;;;24.63;23.30;;;6.40;99.90;;;;;;5105493;28;20557;-75
2021/01/12 05:29:35;;;;;;;24.70;23.30;;;6.40;99.90;;;;;;5101119;28;20480;-77
2021/01/12 05:32:03;;;;;;;23.70;22.40;;;6.50;99.90;;;;;;5102166;28;20514;-77
2021/01/12 05:34:35;;;;;;;22.47;21.37;;;6.50;99.90;;;;;;5098575;28;20485;-76
2021/01/12 05:37:04;;;;;;;22.23;21.03;;;6.40;99.90;;;;;;5098152;28;20502;-76
2021/01/12 05:39:36;;;;;;;21.20;20.10;;;6.40;99.90;;;;;;5103217;28;20465;-76
2021/01/12 05:42:06;;;;;;;21.13;20.03;;;6.50;99.90;;;;;;5100696;28;20482;-75
2021/01/12 05:44:36;;;;;;;23.77;22.40;;;6.50;99.90;;;;;;5102999;28;20991;-76
2021/01/12 05:47:03;;;;;;;22.00;20.80;;;6.50;99.90;;;;;;5098653;28;20458;-76
2021/01/12 05:49:31;;;;;;;22.93;21.73;;;6.50;99.90;;;;;;5099324;28;20469;-75
2021/01/12 05:51:58;;;;;;;22.93;21.70;;;6.50;99.90;;;;;;5098059;28;20537;-75
2021/01/12 05:54:32;;;;;;;22.50;21.40;;;6.60;99.90;;;;;;5097714;28;20515;-75
2021/01/12 05:56:59;;;;;;;22.17;21.07;;;6.50;99.90;;;;;;5094702;28;20503;-76
2021/01/12 05:59:27;;;;;;;22.10;21.00;;;6.60;99.90;;;;;;5106597;27;20466;-75
2021/01/12 06:01:55;;;;;;;22.73;21.53;;;6.60;99.90;;;;;;5102382;28;21011;-77
2021/01/12 06:04:22;;;;;;;22.70;21.50;;;6.60;99.90;;;;;;5103907;28;20894;-77
2021/01/12 06:06:53;;;;;;;22.90;21.70;;;6.60;99.90;;;;;;5098461;28;20463;-76
2021/01/12 06:09:20;;;;;;;22.13;21.03;;;6.60;99.90;;;;;;5100488;28;20886;-76
2021/01/12 06:11:47;;;;;;;21.43;20.33;;;6.60;99.90;;;;;;5103514;28;20466;-77
2021/01/12 06:14:15;;;;;;;22.80;21.60;;;6.60;99.90;;;;;;5103306;28;20464;-76
2021/01/12 06:16:42;;;;;;;22.90;21.53;;;6.60;99.90;;;;;;5097462;28;20470;-76
2021/01/12 06:19:11;;;;;;;22.47;21.27;;;6.70;99.90;;;;;;5099530;28;20963;-77
2021/01/12 06:21:59;;;;;;;22.77;21.63;;;6.70;99.90;;;;;;5096609;28;20551;-78
2021/01/12 06:24:36;;;;;;;21.23;20.13;;;6.70;99.90;;;;;;5071447;28;20466;-77
2021/01/12 06:27:06;;;;;;;22.47;21.17;;;6.70;99.90;;;;;;5102868;28;20457;-76
2021/01/12 06:29:33;;;;;;;22.50;21.07;;;6.70;99.90;;;;;;5104235;28;20487;-75
2021/01/12 06:31:59;;;;;;;21.87;20.77;;;6.70;99.90;;;;;;5103134;28;20458;-77
2021/01/12 06:34:26;;;;;;;21.47;20.23;;;6.80;99.90;;;;;;5100163;28;20458;-76
2021/01/12 06:36:57;;;;;;;21.83;20.63;;;6.70;99.90;;;;;;5103560;28;20507;-76
2021/01/12 06:39:25;;;;;;;22.20;20.90;;;6.70;99.90;;;;;;5103199;28;20556;-77
2021/01/12 06:41:53;;;;;;;22.33;21.00;;;6.80;99.90;;;;;;5108721;28;20492;-77
2021/01/12 06:44:23;;;;;;;21.23;20.17;;;6.70;99.90;;;;;;5103725;28;20992;-77
2021/01/12 06:46:51;;;;;;;22.73;21.43;;;6.80;99.90;;;;;;5100155;28;20461;-76
2021/01/12 06:49:19;;;;;;;22.03;20.83;;;6.80;99.90;;;;;;5108553;28;20460;-75
2021/01/12 06:51:55;;;;;;;20.50;19.50;;;6.90;99.90;;;;;;5108418;28;20452;-77
2021/01/12 06:54:22;;;;;;;21.60;20.50;;;6.80;99.90;;;;;;5107047;28;20954;-75
2021/01/12 06:56:59;;;;;;;23.10;21.80;;;6.80;99.90;;;;;;5102131;28;20462;-76
2021/01/12 06:59:33;;;;;;;23.40;22.10;;;6.80;99.90;;;;;;5109364;27;20462;-76
2021/01/12 07:01:59;;;;;;;22.50;21.10;;;6.90;99.90;;;;;;5104270;27;20855;-77
2021/01/12 07:04:29;;;;;;;24.87;23.23;;;6.80;99.90;;;;;;5108407;28;20538;-76
2021/01/12 07:06:57;;;;;;;22.27;21.07;;;6.90;99.90;;;;;;5104203;28;20552;-75
2021/01/12 07:09:25;;;;;;;24.07;22.87;;;6.90;99.90;;;;;;5102738;28;21105;-76
2021/01/12 07:12:03;;;;;;;24.20;22.07;;;6.90;99.90;;;;;;5106000;28;20877;-75
2021/01/12 07:14:30;;;;;;;24.20;22.50;;;6.90;99.90;;;;;;5101576;28;20584;-76
2021/01/12 07:17:07;;;;;;;24.43;23.10;;;6.90;99.90;;;;;;5103845;28;20462;-75
2021/01/12 07:19:35;;;;;;;25.40;23.80;;;6.90;99.90;;;;;;5096922;28;20503;-75
2021/01/12 07:22:16;;;;;;;23.13;21.93;;;6.90;99.90;;;;;;5102411;28;20513;-75
2021/01/12 07:24:45;;;;;;;26.20;24.63;;;7.00;99.90;;;;;;5102662;28;20947;-75
2021/01/12 07:27:16;;;;;;;24.80;22.83;;;7.00;99.90;;;;;;5105347;28;20486;-75
2021/01/12 07:29:48;;;;;;;25.20;23.70;;;7.00;99.90;;;;;;5107381;28;20845;-76
2021/01/12 07:32:27;;;;;;;25.53;23.53;;;7.00;99.90;;;;;;5107015;28;20462;-76
2021/01/12 07:35:01;;;;;;;24.50;23.10;;;7.00;99.90;;;;;;5100124;28;20462;-75
2021/01/12 07:37:33;;;;;;;27.23;24.90;;;7.00;99.90;;;;;;5100766;28;20500;-76
2021/01/12 07:40:01;;;;;;;24.33;23.03;;;7.00;99.90;;;;;;5098212;28;20468;-75
2021/01/12 07:42:29;;;;;;;25.53;23.93;;;7.00;99.90;;;;;;5104903;28;20517;-74
2021/01/12 07:44:55;;;;;;;26.27;24.67;;;7.00;99.90;;;;;;5103775;28;20532;-75
2021/01/12 07:47:21;;;;;;;26.17;24.60;;;7.00;99.90;;;;;;5104761;28;20525;-77
2021/01/12 07:49:50;;;;;;;26.47;25.07;;;7.00;99.90;;;;;;5108199;28;20466;-74
2021/01/12 07:52:19;;;;;;;27.47;25.87;;;7.00;99.90;;;;;;5102687;28;20915;-76
2021/01/12 07:54:46;;;;;;;27.50;25.80;;;7.10;99.90;;;;;;5101552;28;20467;-75
2021/01/12 07:57:13;;;;;;;26.07;24.47;;;7.10;99.90;;;;;;5103701;28;20545;-75
2021/01/12 07:59:42;;;;;;;26.70;25.20;;;7.10;99.90;;;;;;5108939;27;20875;-76
2021/01/12 08:02:09;;;;;;;26.53;24.73;;;7.10;99.90;;;;;;5103312;28;20486;-75
2021/01/12 08:04:39;;;;;;;25.60;24.10;;;7.10;99.90;;;;;;5104280;28;20454;-75
2021/01/12 08:07:07;;;;;;;24.33;22.87;;;7.10;99.90;;;;;;5101827;28;20464;-75
2021/01/12 08:09:34;;;;;;;25.70;24.20;;;7.10;99.90;;;;;;5104212;28;20478;-75
2021/01/12 08:12:04;;;;;;;24.73;23.23;;;7.20;99.90;;;;;;5103432;28;20928;-76
2021/01/12 08:14:30;;;;;;;24.43;22.93;;;7.20;99.90;;;;;;5095777;28;20835;-75
2021/01/12 08:17:03;;;;;;;25.20;23.70;;;7.20;99.90;;;;;;5095942;28;20459;-76
2021/01/12 08:19:29;;;;;;;23.93;22.63;;;7.20;99.90;;;;;;5100698;28;20468;-75
2021/01/12 08:21:56;;;;;;;24.17;22.77;;;7.30;99.90;;;;;;5095629;28;20490;-75
2021/01/12 08:24:26;;;;;;;24.80;23.27;;;7.30;99.90;;;;;;5102225;28;20804;-75
2021/01/12 08:26:54;;;;;;;24.90;23.30;;;7.20;99.90;;;;;;5103957;28;20451;-75
2021/01/12 08:29:25;;;;;;;26.20;24.60;;;7.20;99.90;;;;;;5100508;27;20478;-75
2021/01/12 08:32:06;;;;;;;25.70;23.90;;;7.20;99.90;;;;;;5107084;27;20457;-74
2021/01/12 08:34:41;;;;;;;24.87;23.17;;;7.20;99.90;;;;;;5106453;27;20450;-75
2021/01/12 08:37:09;;;;;;;26.50;24.90;;;7.30;99.90;;;;;;5101925;27;21315;-75
2021/01/12 08:39:36;;;;;;;25.90;24.27;;;7.20;99.90;;;;;;5093019;27;21005;-76
2021/01/12 08:42:06;;;;;;;23.93;22.57;;;7.30;99.90;;;;;;5090439;27;20876;-75
2021/01/12 08:44:37;;;;;;;27.80;26.10;;;7.30;99.90;;;;;;5101957;27;20485;-75
2021/01/12 08:47:07;;;;;;;25.90;24.30;;;7.30;99.90;;;;;;5096642;27;20515;-75
2021/01/12 08:49:34;;;;;;;26.53;24.63;;;7.30;99.90;;;;;;5102936;27;20978;-75
2021/01/12 08:52:04;;;;;;;27.03;25.53;;;7.40;99.90;;;;;;5096492;27;20965;-76
2021/01/12 08:54:31;;;;;;;26.90;25.20;;;7.40;99.90;;;;;;5111389;27;20458;-74
2021/01/12 08:57:01;;;;;;;25.83;24.17;;;7.40;99.90;;;;;;5095738;27;20485;-76
2021/01/12 08:59:28;;;;;;;26.40;24.70;;;7.40;99.90;;;;;;5107286;27;20481;-74
2021/01/12 09:01:57;;;;;;;28.63;27.03;;;7.50;99.90;;;;;;5103480;27;20874;-76
2021/01/12 09:04:27;;;;;;;28.63;27.13;;;7.50;99.90;;;;;;5099633;27;20583;-76
2021/01/12 09:07:02;;;;;;;32.13;29.90;;;7.60;99.90;;;;;;5100846;27;20889;-77
2021/01/12 09:09:28;;;;;;;31.87;29.93;;;7.60;99.90;;;;;;5098340;28;20515;-75
2021/01/12 09:11:58;;;;;;;33.37;31.47;;;7.60;99.90;;;;;;5097875;27;20763;-76
2021/01/12 09:14:25;;;;;;;34.63;32.20;;;7.60;99.90;;;;;;5093218;27;20455;-77
2021/01/12 09:16:56;;;;;;;35.67;33.40;;;7.60;99.90;;;;;;5097723;27;20455;-75
2021/01/12 09:19:24;;;;;;;34.20;32.10;;;7.60;99.90;;;;;;5101464;27;20551;-77
2021/01/12 09:21:51;;;;;;;33.23;31.23;;;7.70;99.90;;;;;;5108649;27;20551;-76
2021/01/12 09:24:19;;;;;;;34.00;31.97;;;7.70;99.90;;;;;;5107437;27;20538;-76
2021/01/12 09:26:46;;;;;;;34.00;31.90;;;7.70;99.90;;;;;;5103877;27;20466;-75
2021/01/12 09:29:14;;;;;;;35.73;33.57;;;7.60;99.90;;;;;;5096854;27;20476;-76
2021/01/12 09:31:48;;;;;;;34.33;32.23;;;7.60;99.90;;;;;;5106147;27;20453;-76
2021/01/12 09:34:22;;;;;;;33.67;31.57;;;7.70;99.90;;;;;;5103861;28;20484;-77
2021/01/12 09:36:50;;;;;;;35.60;33.40;;;7.70;99.90;;;;;;5109151;27;20463;-75
2021/01/12 09:39:16;;;;;;;36.00;33.50;;;7.70;99.90;;;;;;5096995;28;20482;-75
2021/01/12 09:41:42;;;;;;;35.73;33.43;;;7.70;99.90;;;;;;5097057;27;20466;-76
2021/01/12 09:44:09;;;;;;;33.30;31.20;;;7.70;99.90;;;;;;5095247;28;20464;-76
2021/01/12 09:46:36;;;;;;;34.20;32.10;;;7.70;99.90;;;;;;5093176;28;20456;-76
2021/01/12 09:49:03;;;;;;;35.40;33.20;;;7.70;99.90;;;;;;5101806;27;20879;-76
2021/01/12 09:51:31;;;;;;;34.40;32.23;;;7.80;99.90;;;;;;5097477;27;20488;-76
2021/01/12 09:53:58;;;;;;;39.47;36.03;;;7.70;99.90;;;;;;5097784;27;20976;-75
2021/01/12 09:56:25;;;;;;;37.53;34.70;;;7.80;99.90;;;;;;5098445;28;20515;-76
2021/01/12 09:58:52;;;;;;;32.07;29.93;;;7.70;99.90;;;;;;5101278;27;20798;-75
2021/01/12 10:01:20;;;;;;;37.03;34.13;;;7.80;99.90;;;;;;5096663;28;20462;-76
2021/01/12 10:03:46;;;;;;;29.43;27.27;;;7.70;99.90;;;;;;5097753;28;20572;-76
2021/01/12 10:06:17;;;;;;;26.20;24.80;;;7.70;99.90;;;;;;5097534;28;20472;-77
2021/01/12 10:08:45;;;;;;;26.87;25.30;;;7.70;99.90;;;;;;5096900;27;20956;-76
2021/01/12 10:11:13;;;;;;;24.70;23.30;;;7.60;99.90;;;;;;5097745;28;20539;-76
2021/01/12 10:13:39;;;;;;;24.60;22.80;;;7.60;99.90;;;;;;5097597;28;20462;-77
2021/01/12 10:16:06;;;;;;;22.37;21.10;;;7.60;99.90;;;;;;5096602;28;20480;-77
2021/01/12 10:18:33;;;;;;;23.63;21.60;;;7.50;99.90;;;;;;5098218;28;20460;-76
2021/01/12 10:20:59;;;;;;;23.27;21.87;;;7.50;99.90;;;;;;5097253;28;20469;-76
2021/01/12 10:23:25;;;;;;;23.93;22.47;;;7.60;99.90;;;;;;5100701;28;20485;-76
2021/01/12 10:25:53;;;;;;;26.07;24.57;;;7.60;99.90;;;;;;5101914;28;20466;-75
2021/01/12 10:28:21;;;;;;;25.63;23.97;;;7.60;99.90;;;;;;5097375;28;20847;-76
2021/01/12 10:30:48;;;;;;;27.00;25.00;;;7.60;99.90;;;;;;5106984;28;20461;-76
2021/01/12 10:33:14;;;;;;;27.40;25.20;;;7.60;99.90;;;;;;5098156;28;20457;-76
2021/01/12 10:35:43;;;;;;;26.57;24.97;;;7.60;99.90;;;;;;5106353;28;20456;-76
2021/01/12 10:38:09;;;;;;;27.27;25.20;;;7.70;99.90;;;;;;5099223;27;20542;-76
2021/01/12 10:40:35;;;;;;;28.50;26.67;;;7.80;99.90;;;;;;5103565;28;20870;-76
2021/01/12 10:43:05;;;;;;;26.20;24.50;;;7.80;99.90;;;;;;5095719;28;20494;-77
2021/01/12 10:45:32;;;;;;;28.43;26.40;;;7.80;99.90;;;;;;5100214;28;20504;-77
2021/01/12 10:47:58;;;;;;;29.50;27.47;;;7.90;99.90;;;;;;5091429;28;20460;-77
2021/01/12 10:50:25;;;;;;;29.80;27.80;;;7.90;99.90;;;;;;5098348;28;20475;-76
2021/01/12 10:52:52;;;;;;;29.33;27.00;;;7.90;99.90;;;;;;5097027;28;20462;-76
2021/01/12 10:55:21;;;;;;;28.60;26.53;;;7.80;99.90;;;;;;5108851;28;20553;-76
2021/01/12 10:57:49;;;;;;;28.50;26.20;;;7.70;99.90;;;;;;5103803;28;20830;-75
2021/01/12 11:00:17;;;;;;;31.10;28.87;;;7.60;99.90;;;;;;5101839;28;20468;-75
2021/01/12 11:02:45;;;;;;;30.83;28.20;;;7.60;99.90;;;;;;5094950;28;20481;-77
2021/01/12 11:05:12;;;;;;;27.43;25.63;;;7.60;99.90;;;;;;5106788;28;20468;-76
2021/01/12 11:07:42;;;;;;;28.83;26.90;;;7.50;99.90;;;;;;5096113;28;20469;-76
2021/01/12 11:10:09;;;;;;;26.30;24.50;;;7.50;99.90;;;;;;5101620;28;20867;-77
2021/01/12 11:12:37;;;;;;;26.73;24.83;;;7.50;99.90;;;;;;5106648;28;20464;-76
2021/01/12 11:15:07;;;;;;;24.40;22.70;;;7.60;99.90;;;;;;5108883;28;20461;-76
2021/01/12 11:17:37;;;;;;;25.17;23.67;;;7.30;99.90;;;;;;5108896;28;21026;-75
2021/01/12 11:20:08;;;;;;;25.47;23.27;;;7.20;99.90;;;;;;5106776;28;20800;-75
2021/01/12 11:22:35;;;;;;;27.00;23.10;;;7.20;99.90;;;;;;5101899;28;20476;-75
2021/01/12 11:25:05;;;;;;;24.10;22.60;;;7.10;99.90;;;;;;5099583;28;20458;-75
2021/01/12 11:27:32;;;;;;;25.83;24.13;;;7.00;99.90;;;;;;5113365;27;20464;-75
2021/01/12 11:30:01;;;;;;;26.17;24.57;;;6.90;99.90;;;;;;5106400;27;22094;-75
2021/01/12 11:32:30;;;;;;;26.80;24.70;;;6.80;99.90;;;;;;5099973;27;20457;-76
2021/01/12 11:34:58;;;;;;;32.13;27.73;;;6.80;99.90;;;;;;5112248;27;20484;-75
2021/01/12 11:37:29;;;;;;;28.93;27.10;;;6.80;99.90;;;;;;5107724;27;20787;-73
2021/01/12 11:39:55;;;;;;;29.03;27.43;;;6.70;99.90;;;;;;5101406;28;20460;-74
2021/01/12 11:42:22;;;;;;;30.03;28.40;;;6.50;99.90;;;;;;5100954;28;20850;-74
2021/01/12 11:44:49;;;;;;;30.20;28.50;;;6.20;99.90;;;;;;5106009;27;20489;-74
2021/01/12 11:47:16;;;;;;;30.03;28.33;;;6.00;99.90;;;;;;5104450;27;20518;-75
2021/01/12 11:49:42;;;;;;;28.30;26.60;;;5.90;99.90;;;;;;5097952;28;20461;-75
2021/01/12 11:52:10;;;;;;;28.87;27.07;;;5.80;99.90;;;;;;5097189;28;20469;-76
2021/01/12 11:54:37;;;;;;;27.37;25.63;;;5.80;99.90;;;;;;5096630;27;20809;-76
2021/01/12 11:57:09;;;;;;;26.47;24.97;;;5.90;99.90;;;;;;5094491;27;20469;-76
2021/01/12 11:59:36;;;;;;;24.90;23.40;;;6.00;99.90;;;;;;5099125;27;20468;-76
2021/01/12 12:02:04;;;;;;;25.10;23.70;;;6.00;99.90;;;;;;5103050;27;20484;-76
2021/01/12 12:04:30;;;;;;;26.27;24.77;;;6.00;99.90;;;;;;5105296;27;21010;-76
2021/01/12 12:06:59;;;;;;;26.20;24.70;;;6.00;99.90;;;;;;5108537;27;20470;-76
2021/01/12 12:09:26;;;;;;;25.30;23.80;;;6.10;99.90;;;;;;5101042;27;20727;-76
2021/01/12 12:11:54;;;;;;;25.70;24.17;;;6.10;99.90;;;;;;5102936;27;20470;-76
2021/01/12 12:14:23;;;;;;;24.53;23.13;;;6.10;99.90;;;;;;5104422;27;20457;-76
2021/01/12 12:16:50;;;;;;;25.60;24.00;;;6.20;99.90;;;;;;5107305;27;20818;-77
2021/01/12 12:19:18;;;;;;;24.30;22.67;;;6.20;99.90;;;;;;5101825;27;20527;-76
2021/01/12 12:21:47;;;;;;;23.97;22.50;;;6.30;99.90;;;;;;5106116;27;20790;-77
2021/01/12 12:24:15;;;;;;;23.60;22.30;;;6.40;99.90;;;;;;5098653;27;20867;-77
2021/01/12 12:26:42;;;;;;;21.17;20.00;;;6.50;99.90;;;;;;5106011;27;20455;-77
2021/01/12 12:29:10;;;;;;;21.87;20.37;;;6.50;99.90;;;;;;5094603;27;20590;-76
2021/01/12 12:31:37;;;;;;;20.13;18.93;;;6.50;99.90;;;;;;5103642;27;20540;-77
2021/01/12 12:34:05;;;;;;;19.57;18.43;;;6.60;99.90;;;;;;5108281;27;20467;-77
2021/01/12 12:36:31;;;;;;;17.80;16.70;;;6.60;99.90;;;;;;5100578;27;20460;-77
2021/01/12 12:38:58;;;;;;;17.17;16.27;;;6.80;99.90;;;;;;5102241;27;20463;-77
2021/01/12 12:41:24;;;;;;;16.50;15.70;;;6.80;99.90;;;;;;5108274;27;20458;-78